sensor_id;sensor_type;location;lat;lon;timestamp;temperature;humidity
32348;DHT22;18821;44.800;10.326;2024-02-16T00:00:30;9.10;99.90
32348;DHT22;18821;44.800;10.326;2024-02-16T00:02:57;9.10;99.90
32348;DHT22;18821;44.800;10.326;2024-02-16T00:05:22;9.00;99.90
32348;DHT22;18821;44.800;10.326;2024-02-16T00:07:48;8.90;99.90
32348;DHT22;18821;44.800;10.326;2024-02-16T00:10:14;8.90;99.90
32348;DHT22;18821;44.800;10.326;2024-02-16T00:12:40;8.90;99.90
32348;DHT22;18821;44.800;10.326;2024-02-16T00:15:07;8.80;99.90
32348;DHT22;18821;44.800;10.326;2024-02-16T00:17:33;8.90;99.90
32348;DHT22;18821;44.800;10.326;2024-02-16T00:19:59;8.90;99.90
32348;DHT22;18821;44.800;10.326;2024-02-16T00:22:26;8.90;99.90
32348;DHT22;18821;44.800;10.326;2024-02-16T00:24:52;8.90;99.90
32348;DHT22;18821;44.800;10.326;2024-02-16T00:27:18;8.90;99.90
32348;DHT22;18821;44.800;10.326;2024-02-16T00:29:44;8.90;99.90
32348;DHT22;18821;44.800;10.326;2024-02-16T00:32:13;8.90;99.90
32348;DHT22;18821;44.800;10.326;2024-02-16T00:34:39;8.90;99.90
32348;DHT22;18821;44.800;10.326;2024-02-16T00:37:07;8.80;99.90
32348;DHT22;18821;44.800;10.326;2024-02-16T00:39:36;8.80;99.90
32348;DHT22;18821;44.800;10.326;2024-02-16T00:42:03;8.80;99.90
32348;DHT22;18821;44.800;10.326;2024-02-16T00:44:29;8.80;99.90
32348;DHT22;18821;44.800;10.326;2024-02-16T00:46:55;8.70;99.90
32348;DHT22;18821;44.800;10.326;2024-02-16T00:49:21;8.80;99.90
32348;DHT22;18821;44.800;10.326;2024-02-16T00:51:46;8.80;99.90
32348;DHT22;18821;44.800;10.326;2024-02-16T00:54:12;8.80;99.90
32348;DHT22;18821;44.800;10.326;2024-02-16T00:56:39;8.80;99.90
32348;DHT22;18821;44.800;10.326;2024-02-16T00:59:05;8.80;99.90
32348;DHT22;18821;44.800;10.326;2024-02-16T01:01:31;8.90;99.90
32348;DHT22;18821;44.800;10.326;2024-02-16T01:03:57;8.80;99.90
32348;DHT22;18821;44.800;10.326;2024-02-16T01:06:22;8.80;99.90
32348;DHT22;18821;44.800;10.326;2024-02-16T01:08:48;8.70;99.90
32348;DHT22;18821;44.800;10.326;2024-02-16T01:11:15;8.70;99.90
32348;DHT22;18821;44.800;10.326;2024-02-16T01:13:41;8.70;99.90
32348;DHT22;18821;44.800;10.326;2024-02-16T01:16:08;8.70;99.90
32348;DHT22;18821;44.800;10.326;2024-02-16T01:18:35;8.70;99.90
32348;DHT22;18821;44.800;10.326;2024-02-16T01:21:03;8.70;99.90
32348;DHT22;18821;44.800;10.326;2024-02-16T01:23:29;8.70;99.90
32348;DHT22;18821;44.800;10.326;2024-02-16T01:25:56;8.70;99.90
32348;DHT22;18821;44.800;10.326;2024-02-16T01:28:21;8.60;99.90
32348;DHT22;18821;44.800;10.326;2024-02-16T01:30:49;8.60;99.90
32348;DHT22;18821;44.800;10.326;2024-02-16T01:33:15;8.60;99.90
32348;DHT22;18821;44.800;10.326;2024-02-16T01:35:41;8.50;99.90
32348;DHT22;18821;44.800;10.326;2024-02-16T01:38:07;8.50;99.90
32348;DHT22;18821;44.800;10.326;2024-02-16T01:40:33;8.60;99.90
32348;DHT22;18821;44.800;10.326;2024-02-16T01:42:59;8.50;99.90
32348;DHT22;18821;44.800;10.326;2024-02-16T01:45:25;8.50;99.90
32348;DHT22;18821;44.800;10.326;2024-02-16T01:47:52;8.40;99.90
32348;DHT22;18821;44.800;10.326;2024-02-16T01:50:19;8.40;99.90
32348;DHT22;18821;44.800;10.326;2024-02-16T01:52:47;8.40;99.90
32348;DHT22;18821;44.800;10.326;2024-02-16T01:55:14;8.40;99.90
32348;DHT22;18821;44.800;10.326;2024-02-16T01:57:42;8.40;99.90
32348;DHT22;18821;44.800;10.326;2024-02-16T02:00:09;8.50;99.90
32348;DHT22;18821;44.800;10.326;2024-02-16T02:02:35;8.40;99.90
32348;DHT22;18821;44.800;10.326;2024-02-16T02:05:02;8.30;99.90
32348;DHT22;18821;44.800;10.326;2024-02-16T02:07:29;8.30;99.90
32348;DHT22;18821;44.800;10.326;2024-02-16T02:09:56;8.30;99.90
32348;DHT22;18821;44.800;10.326;2024-02-16T02:12:22;8.30;99.90
32348;DHT22;18821;44.800;10.326;2024-02-16T02:14:49;8.30;99.90
32348;DHT22;18821;44.800;10.326;2024-02-16T02:17:17;8.30;99.90
32348;DHT22;18821;44.800;10.326;2024-02-16T02:19:45;8.20;99.90
32348;DHT22;18821;44.800;10.326;2024-02-16T02:22:20;8.20;99.90
32348;DHT22;18821;44.800;10.326;2024-02-16T02:24:47;8.10;99.90
32348;DHT22;18821;44.800;10.326;2024-02-16T02:27:15;8.20;99.90
32348;DHT22;18821;44.800;10.326;2024-02-16T02:29:41;8.10;99.90
32348;DHT22;18821;44.800;10.326;2024-02-16T02:32:08;8.10;99.90
32348;DHT22;18821;44.800;10.326;2024-02-16T02:34:35;8.00;99.90
32348;DHT22;18821;44.800;10.326;2024-02-16T02:37:04;7.90;99.90
32348;DHT22;18821;44.800;10.326;2024-02-16T02:39:30;7.80;99.90
32348;DHT22;18821;44.800;10.326;2024-02-16T02:41:56;7.80;99.90
32348;DHT22;18821;44.800;10.326;2024-02-16T02:44:24;7.90;99.90
32348;DHT22;18821;44.800;10.326;2024-02-16T02:46:50;7.90;99.90
32348;DHT22;18821;44.800;10.326;2024-02-16T02:49:18;7.90;99.90
32348;DHT22;18821;44.800;10.326;2024-02-16T02:51:44;7.90;99.90
32348;DHT22;18821;44.800;10.326;2024-02-16T02:54:10;7.90;99.90
32348;DHT22;18821;44.800;10.326;2024-02-16T02:56:36;7.90;99.90
32348;DHT22;18821;44.800;10.326;2024-02-16T02:59:02;7.80;99.90
32348;DHT22;18821;44.800;10.326;2024-02-16T03:01:28;7.80;99.90
32348;DHT22;18821;44.800;10.326;2024-02-16T03:03:54;7.80;99.90
32348;DHT22;18821;44.800;10.326;2024-02-16T03:06:21;7.80;99.90
32348;DHT22;18821;44.800;10.326;2024-02-16T03:08:47;7.80;99.90
32348;DHT22;18821;44.800;10.326;2024-02-16T03:11:13;7.80;99.90
32348;DHT22;18821;44.800;10.326;2024-02-16T03:13:38;7.80;99.90
32348;DHT22;18821;44.800;10.326;2024-02-16T03:16:06;7.90;99.90
32348;DHT22;18821;44.800;10.326;2024-02-16T03:18:33;7.90;99.90
32348;DHT22;18821;44.800;10.326;2024-02-16T03:21:01;7.90;99.90
32348;DHT22;18821;44.800;10.326;2024-02-16T03:23:27;8.00;99.90
32348;DHT22;18821;44.800;10.326;2024-02-16T03:25:53;8.00;99.90
32348;DHT22;18821;44.800;10.326;2024-02-16T03:28:20;8.00;99.90
32348;DHT22;18821;44.800;10.326;2024-02-16T03:30:46;8.00;99.90
32348;DHT22;18821;44.800;10.326;2024-02-16T03:33:12;8.00;99.90
32348;DHT22;18821;44.800;10.326;2024-02-16T03:35:39;8.00;99.90
32348;DHT22;18821;44.800;10.326;2024-02-16T03:38:06;8.00;99.90
32348;DHT22;18821;44.800;10.326;2024-02-16T03:40:32;8.00;99.90
32348;DHT22;18821;44.800;10.326;2024-02-16T03:42:58;8.00;99.90
32348;DHT22;18821;44.800;10.326;2024-02-16T03:45:25;8.00;99.90
32348;DHT22;18821;44.800;10.326;2024-02-16T03:47:52;7.90;99.90
32348;DHT22;18821;44.800;10.326;2024-02-16T03:50:19;7.90;99.90
32348;DHT22;18821;44.800;10.326;2024-02-16T03:52:45;7.80;99.90
32348;DHT22;18821;44.800;10.326;2024-02-16T03:55:11;7.70;99.90
32348;DHT22;18821;44.800;10.326;2024-02-16T03:57:37;7.60;99.90
32348;DHT22;18821;44.800;10.326;2024-02-16T04:00:04;7.60;99.90
32348;DHT22;18821;44.800;10.326;2024-02-16T04:02:39;7.50;99.90
32348;DHT22;18821;44.800;10.326;2024-02-16T04:05:05;7.50;99.90
32348;DHT22;18821;44.800;10.326;2024-02-16T04:07:34;7.50;99.90
32348;DHT22;18821;44.800;10.326;2024-02-16T04:10:00;7.60;99.90
32348;DHT22;18821;44.800;10.326;2024-02-16T04:12:26;7.60;99.90
32348;DHT22;18821;44.800;10.326;2024-02-16T04:14:52;7.60;99.90
32348;DHT22;18821;44.800;10.326;2024-02-16T04:17:18;7.60;99.90
32348;DHT22;18821;44.800;10.326;2024-02-16T04:19:44;7.60;99.90
32348;DHT22;18821;44.800;10.326;2024-02-16T04:22:10;7.60;99.90
32348;DHT22;18821;44.800;10.326;2024-02-16T04:24:36;7.60;99.90
32348;DHT22;18821;44.800;10.326;2024-02-16T04:27:02;7.70;99.90
32348;DHT22;18821;44.800;10.326;2024-02-16T04:29:28;7.60;99.90
32348;DHT22;18821;44.800;10.326;2024-02-16T04:31:53;7.60;99.90
32348;DHT22;18821;44.800;10.326;2024-02-16T04:34:19;7.70;99.90
32348;DHT22;18821;44.800;10.326;2024-02-16T04:36:45;7.70;99.90
32348;DHT22;18821;44.800;10.326;2024-02-16T04:39:11;7.70;99.90
32348;DHT22;18821;44.800;10.326;2024-02-16T04:41:37;7.70;99.90
32348;DHT22;18821;44.800;10.326;2024-02-16T04:44:04;7.80;99.90
32348;DHT22;18821;44.800;10.326;2024-02-16T04:46:30;7.80;99.90
32348;DHT22;18821;44.800;10.326;2024-02-16T04:48:56;7.70;99.90
32348;DHT22;18821;44.800;10.326;2024-02-16T04:51:22;7.70;99.90
32348;DHT22;18821;44.800;10.326;2024-02-16T04:53:48;7.80;99.90
32348;DHT22;18821;44.800;10.326;2024-02-16T04:56:14;7.70;99.90
32348;DHT22;18821;44.800;10.326;2024-02-16T04:58:41;7.70;99.90
32348;DHT22;18821;44.800;10.326;2024-02-16T05:01:07;7.70;99.90
32348;DHT22;18821;44.800;10.326;2024-02-16T05:03:33;7.70;99.90
32348;DHT22;18821;44.800;10.326;2024-02-16T05:06:02;7.70;99.90
32348;DHT22;18821;44.800;10.326;2024-02-16T05:08:28;7.80;99.90
32348;DHT22;18821;44.800;10.326;2024-02-16T05:10:54;7.80;99.90
32348;DHT22;18821;44.800;10.326;2024-02-16T05:13:20;7.80;99.90
32348;DHT22;18821;44.800;10.326;2024-02-16T05:15:46;7.80;99.90
32348;DHT22;18821;44.800;10.326;2024-02-16T05:18:14;7.80;99.90
32348;DHT22;18821;44.800;10.326;2024-02-16T05:20:40;7.80;99.90
32348;DHT22;18821;44.800;10.326;2024-02-16T05:23:06;7.80;99.90
32348;DHT22;18821;44.800;10.326;2024-02-16T05:25:32;7.80;99.90
32348;DHT22;18821;44.800;10.326;2024-02-16T05:27:58;7.80;99.90
32348;DHT22;18821;44.800;10.326;2024-02-16T05:30:24;7.90;99.90
32348;DHT22;18821;44.800;10.326;2024-02-16T05:32:50;7.80;99.90
32348;DHT22;18821;44.800;10.326;2024-02-16T05:35:18;7.80;99.90
32348;DHT22;18821;44.800;10.326;2024-02-16T05:37:46;7.80;99.90
32348;DHT22;18821;44.800;10.326;2024-02-16T05:40:17;7.80;99.90
32348;DHT22;18821;44.800;10.326;2024-02-16T05:42:56;7.80;99.90
32348;DHT22;18821;44.800;10.326;2024-02-16T05:45:25;7.80;99.90
32348;DHT22;18821;44.800;10.326;2024-02-16T05:47:52;7.80;99.90
32348;DHT22;18821;44.800;10.326;2024-02-16T05:50:20;7.80;99.90
32348;DHT22;18821;44.800;10.326;2024-02-16T05:52:47;7.80;99.90
32348;DHT22;18821;44.800;10.326;2024-02-16T05:55:14;7.80;99.90
32348;DHT22;18821;44.800;10.326;2024-02-16T05:57:40;7.80;99.90
32348;DHT22;18821;44.800;10.326;2024-02-16T06:00:09;7.80;99.90
32348;DHT22;18821;44.800;10.326;2024-02-16T06:02:37;7.80;99.90
32348;DHT22;18821;44.800;10.326;2024-02-16T06:05:03;7.80;99.90
32348;DHT22;18821;44.800;10.326;2024-02-16T06:07:30;7.80;99.90
32348;DHT22;18821;44.800;10.326;2024-02-16T06:09:56;7.80;99.90
32348;DHT22;18821;44.800;10.326;2024-02-16T06:12:23;7.80;99.90
32348;DHT22;18821;44.800;10.326;2024-02-16T06:14:49;7.80;99.90
32348;DHT22;18821;44.800;10.326;2024-02-16T06:17:16;7.80;99.90
32348;DHT22;18821;44.800;10.326;2024-02-16T06:19:43;7.80;99.90
32348;DHT22;18821;44.800;10.326;2024-02-16T06:22:09;7.80;99.90
32348;DHT22;18821;44.800;10.326;2024-02-16T06:24:36;7.80;99.90
32348;DHT22;18821;44.800;10.326;2024-02-16T06:27:02;7.90;99.90
32348;DHT22;18821;44.800;10.326;2024-02-16T06:29:29;7.90;99.90
32348;DHT22;18821;44.800;10.326;2024-02-16T06:31:57;8.00;99.90
32348;DHT22;18821;44.800;10.326;2024-02-16T06:34:23;8.00;99.90
32348;DHT22;18821;44.800;10.326;2024-02-16T06:36:49;8.00;99.90
32348;DHT22;18821;44.800;10.326;2024-02-16T06:39:18;8.00;99.90
32348;DHT22;18821;44.800;10.326;2024-02-16T06:41:45;8.10;99.90
32348;DHT22;18821;44.800;10.326;2024-02-16T06:44:13;8.10;99.90
32348;DHT22;18821;44.800;10.326;2024-02-16T06:46:44;8.10;99.90
32348;DHT22;18821;44.800;10.326;2024-02-16T06:49:11;8.20;99.90
32348;DHT22;18821;44.800;10.326;2024-02-16T06:51:37;8.20;99.90
32348;DHT22;18821;44.800;10.326;2024-02-16T06:54:04;8.30;99.90
32348;DHT22;18821;44.800;10.326;2024-02-16T06:56:31;8.30;99.90
32348;DHT22;18821;44.800;10.326;2024-02-16T06:58:57;8.30;99.90
32348;DHT22;18821;44.800;10.326;2024-02-16T07:01:23;8.40;99.90
32348;DHT22;18821;44.800;10.326;2024-02-16T07:03:49;8.40;99.90
32348;DHT22;18821;44.800;10.326;2024-02-16T07:06:16;8.60;99.90
32348;DHT22;18821;44.800;10.326;2024-02-16T07:08:45;8.60;99.90
32348;DHT22;18821;44.800;10.326;2024-02-16T07:11:11;8.70;99.90
32348;DHT22;18821;44.800;10.326;2024-02-16T07:13:41;8.80;99.90
32348;DHT22;18821;44.800;10.326;2024-02-16T07:16:10;8.90;99.90
32348;DHT22;18821;44.800;10.326;2024-02-16T07:18:36;9.00;99.90
32348;DHT22;18821;44.800;10.326;2024-02-16T07:21:03;9.10;99.90
32348;DHT22;18821;44.800;10.326;2024-02-16T07:23:29;9.10;99.90
32348;DHT22;18821;44.800;10.326;2024-02-16T07:25:55;9.20;99.90
32348;DHT22;18821;44.800;10.326;2024-02-16T07:28:22;9.20;99.90
32348;DHT22;18821;44.800;10.326;2024-02-16T07:30:49;9.20;99.90
32348;DHT22;18821;44.800;10.326;2024-02-16T07:33:16;9.30;99.90
32348;DHT22;18821;44.800;10.326;2024-02-16T07:35:42;9.40;99.90
32348;DHT22;18821;44.800;10.326;2024-02-16T07:38:08;9.60;99.90
32348;DHT22;18821;44.800;10.326;2024-02-16T07:40:34;9.50;99.90
32348;DHT22;18821;44.800;10.326;2024-02-16T07:43:01;9.30;99.90
32348;DHT22;18821;44.800;10.326;2024-02-16T07:45:27;9.30;99.90
32348;DHT22;18821;44.800;10.326;2024-02-16T07:47:53;9.40;99.90
32348;DHT22;18821;44.800;10.326;2024-02-16T07:50:20;9.40;99.90
32348;DHT22;18821;44.800;10.326;2024-02-16T07:52:46;9.50;99.90
32348;DHT22;18821;44.800;10.326;2024-02-16T07:55:12;9.60;99.90
32348;DHT22;18821;44.800;10.326;2024-02-16T07:57:38;9.80;99.90
32348;DHT22;18821;44.800;10.326;2024-02-16T08:00:05;9.90;99.90
32348;DHT22;18821;44.800;10.326;2024-02-16T08:02:32;9.90;99.90
32348;DHT22;18821;44.800;10.326;2024-02-16T08:04:58;10.00;99.90
32348;DHT22;18821;44.800;10.326;2024-02-16T08:07:24;9.90;99.90
32348;DHT22;18821;44.800;10.326;2024-02-16T08:09:50;9.50;99.90
32348;DHT22;18821;44.800;10.326;2024-02-16T08:12:16;9.50;99.90
32348;DHT22;18821;44.800;10.326;2024-02-16T08:14:42;9.50;99.90
32348;DHT22;18821;44.800;10.326;2024-02-16T08:17:09;9.70;99.90
32348;DHT22;18821;44.800;10.326;2024-02-16T08:19:37;10.00;99.90
32348;DHT22;18821;44.800;10.326;2024-02-16T08:22:04;10.10;99.90
32348;DHT22;18821;44.800;10.326;2024-02-16T08:24:34;10.30;99.90
32348;DHT22;18821;44.800;10.326;2024-02-16T08:27:00;10.00;99.90
32348;DHT22;18821;44.800;10.326;2024-02-16T08:29:26;9.80;99.90
32348;DHT22;18821;44.800;10.326;2024-02-16T08:31:54;9.80;99.90
32348;DHT22;18821;44.800;10.326;2024-02-16T08:34:20;9.80;99.90
32348;DHT22;18821;44.800;10.326;2024-02-16T08:36:49;9.90;99.90
32348;DHT22;18821;44.800;10.326;2024-02-16T08:39:16;9.90;99.90
32348;DHT22;18821;44.800;10.326;2024-02-16T08:41:43;10.10;99.90
32348;DHT22;18821;44.800;10.326;2024-02-16T08:44:15;10.00;99.90
32348;DHT22;18821;44.800;10.326;2024-02-16T08:46:41;9.90;99.90
32348;DHT22;18821;44.800;10.326;2024-02-16T08:49:07;9.80;99.90
32348;DHT22;18821;44.800;10.326;2024-02-16T08:51:33;9.80;99.90
32348;DHT22;18821;44.800;10.326;2024-02-16T08:54:00;9.90;99.90
32348;DHT22;18821;44.800;10.326;2024-02-16T08:56:27;10.00;99.90
32348;DHT22;18821;44.800;10.326;2024-02-16T08:58:53;10.20;99.90
32348;DHT22;18821;44.800;10.326;2024-02-16T09:01:18;10.40;99.90
32348;DHT22;18821;44.800;10.326;2024-02-16T09:03:44;10.30;99.90
32348;DHT22;18821;44.800;10.326;2024-02-16T09:06:11;10.30;99.90
32348;DHT22;18821;44.800;10.326;2024-02-16T09:08:36;10.10;99.90
32348;DHT22;18821;44.800;10.326;2024-02-16T09:11:03;10.20;99.90
32348;DHT22;18821;44.800;10.326;2024-02-16T09:13:32;10.20;99.90
32348;DHT22;18821;44.800;10.326;2024-02-16T09:15:59;10.30;99.90
32348;DHT22;18821;44.800;10.326;2024-02-16T09:18:25;10.40;99.90
32348;DHT22;18821;44.800;10.326;2024-02-16T09:20:51;10.20;99.90
32348;DHT22;18821;44.800;10.326;2024-02-16T09:23:17;10.30;99.90
32348;DHT22;18821;44.800;10.326;2024-02-16T09:25:43;10.20;99.90
32348;DHT22;18821;44.800;10.326;2024-02-16T09:28:12;10.10;99.90
32348;DHT22;18821;44.800;10.326;2024-02-16T09:30:38;10.40;99.90
32348;DHT22;18821;44.800;10.326;2024-02-16T09:33:05;10.60;99.90
32348;DHT22;18821;44.800;10.326;2024-02-16T09:35:33;10.80;99.90
32348;DHT22;18821;44.800;10.326;2024-02-16T09:37:59;11.00;99.90
32348;DHT22;18821;44.800;10.326;2024-02-16T09:40:25;11.00;99.90
32348;DHT22;18821;44.800;10.326;2024-02-16T09:42:52;10.80;99.90
32348;DHT22;18821;44.800;10.326;2024-02-16T09:45:19;10.90;99.90
32348;DHT22;18821;44.800;10.326;2024-02-16T09:47:46;10.80;99.90
32348;DHT22;18821;44.800;10.326;2024-02-16T09:50:16;10.90;99.90
32348;DHT22;18821;44.800;10.326;2024-02-16T09:52:49;10.90;99.90
32348;DHT22;18821;44.800;10.326;2024-02-16T09:55:17;10.80;99.90
32348;DHT22;18821;44.800;10.326;2024-02-16T09:57:46;11.00;99.90
32348;DHT22;18821;44.800;10.326;2024-02-16T10:00:13;11.20;99.90
32348;DHT22;18821;44.800;10.326;2024-02-16T10:02:43;11.40;99.90
32348;DHT22;18821;44.800;10.326;2024-02-16T10:07:41;11.70;99.90
32348;DHT22;18821;44.800;10.326;2024-02-16T10:10:20;11.70;99.90
32348;DHT22;18821;44.800;10.326;2024-02-16T10:12:47;11.80;99.90
32348;DHT22;18821;44.800;10.326;2024-02-16T10:15:22;11.70;99.90
32348;DHT22;18821;44.800;10.326;2024-02-16T10:18:02;11.60;99.90
32348;DHT22;18821;44.800;10.326;2024-02-16T10:20:29;11.50;99.90
32348;DHT22;18821;44.800;10.326;2024-02-16T10:23:13;11.60;99.90
32348;DHT22;18821;44.800;10.326;2024-02-16T10:25:40;11.50;99.90
32348;DHT22;18821;44.800;10.326;2024-02-16T10:28:10;11.50;99.90
32348;DHT22;18821;44.800;10.326;2024-02-16T10:30:41;11.50;99.90
32348;DHT22;18821;44.800;10.326;2024-02-16T10:33:11;11.50;99.90
32348;DHT22;18821;44.800;10.326;2024-02-16T10:35:39;11.60;99.90
32348;DHT22;18821;44.800;10.326;2024-02-16T10:38:06;11.60;99.90
32348;DHT22;18821;44.800;10.326;2024-02-16T10:40:39;11.50;99.90
32348;DHT22;18821;44.800;10.326;2024-02-16T10:43:07;12.00;99.90
32348;DHT22;18821;44.800;10.326;2024-02-16T10:45:35;12.00;99.90
32348;DHT22;18821;44.800;10.326;2024-02-16T10:48:03;12.00;99.90
32348;DHT22;18821;44.800;10.326;2024-02-16T10:50:34;12.30;99.90
32348;DHT22;18821;44.800;10.326;2024-02-16T10:53:06;12.60;99.90
32348;DHT22;18821;44.800;10.326;2024-02-16T10:55:34;12.70;99.90
32348;DHT22;18821;44.800;10.326;2024-02-16T10:58:01;12.70;99.90
32348;DHT22;18821;44.800;10.326;2024-02-16T11:00:27;12.70;99.90
32348;DHT22;18821;44.800;10.326;2024-02-16T11:02:54;12.80;99.90
32348;DHT22;18821;44.800;10.326;2024-02-16T11:05:32;12.80;99.90
32348;DHT22;18821;44.800;10.326;2024-02-16T11:08:02;12.90;99.90
32348;DHT22;18821;44.800;10.326;2024-02-16T11:10:28;12.90;99.90
32348;DHT22;18821;44.800;10.326;2024-02-16T11:12:54;12.50;99.90
32348;DHT22;18821;44.800;10.326;2024-02-16T11:15:32;12.60;99.90
32348;DHT22;18821;44.800;10.326;2024-02-16T11:18:04;12.80;99.90
32348;DHT22;18821;44.800;10.326;2024-02-16T11:20:37;13.20;99.90
32348;DHT22;18821;44.800;10.326;2024-02-16T11:23:06;13.50;99.90
32348;DHT22;18821;44.800;10.326;2024-02-16T11:25:34;13.70;99.90
32348;DHT22;18821;44.800;10.326;2024-02-16T11:28:00;13.80;99.90
32348;DHT22;18821;44.800;10.326;2024-02-16T11:30:27;13.80;99.90
32348;DHT22;18821;44.800;10.326;2024-02-16T11:32:53;13.90;99.90
32348;DHT22;18821;44.800;10.326;2024-02-16T11:35:19;13.90;99.90
32348;DHT22;18821;44.800;10.326;2024-02-16T11:37:45;13.60;99.90
32348;DHT22;18821;44.800;10.326;2024-02-16T11:40:13;13.30;99.90
32348;DHT22;18821;44.800;10.326;2024-02-16T11:42:39;13.40;99.90
32348;DHT22;18821;44.800;10.326;2024-02-16T11:45:10;13.10;99.90
32348;DHT22;18821;44.800;10.326;2024-02-16T11:47:37;13.20;99.90
32348;DHT22;18821;44.800;10.326;2024-02-16T11:50:07;13.40;99.90
32348;DHT22;18821;44.800;10.326;2024-02-16T11:52:40;13.40;99.90
32348;DHT22;18821;44.800;10.326;2024-02-16T11:55:10;13.40;99.90
32348;DHT22;18821;44.800;10.326;2024-02-16T11:57:40;13.40;99.90
32348;DHT22;18821;44.800;10.326;2024-02-16T12:00:06;13.60;99.90
32348;DHT22;18821;44.800;10.326;2024-02-16T12:02:35;13.90;99.90
32348;DHT22;18821;44.800;10.326;2024-02-16T12:05:04;13.80;99.90
32348;DHT22;18821;44.800;10.326;2024-02-16T12:07:31;13.50;99.90
32348;DHT22;18821;44.800;10.326;2024-02-16T12:10:01;13.40;99.90
32348;DHT22;18821;44.800;10.326;2024-02-16T12:12:31;13.30;99.90
32348;DHT22;18821;44.800;10.326;2024-02-16T12:14:58;13.30;99.90
32348;DHT22;18821;44.800;10.326;2024-02-16T12:17:24;13.40;99.90
32348;DHT22;18821;44.800;10.326;2024-02-16T12:19:51;13.40;99.90
32348;DHT22;18821;44.800;10.326;2024-02-16T12:22:18;13.50;99.90
32348;DHT22;18821;44.800;10.326;2024-02-16T12:24:45;13.40;99.90
32348;DHT22;18821;44.800;10.326;2024-02-16T12:27:12;13.60;99.90
32348;DHT22;18821;44.800;10.326;2024-02-16T12:29:38;13.70;99.90
32348;DHT22;18821;44.800;10.326;2024-02-16T12:32:05;13.80;99.90
32348;DHT22;18821;44.800;10.326;2024-02-16T12:34:31;13.90;99.90
32348;DHT22;18821;44.800;10.326;2024-02-16T12:36:57;13.70;99.90
32348;DHT22;18821;44.800;10.326;2024-02-16T12:39:23;13.90;99.90
32348;DHT22;18821;44.800;10.326;2024-02-16T12:41:49;14.00;99.90
32348;DHT22;18821;44.800;10.326;2024-02-16T12:44:15;14.20;99.90
32348;DHT22;18821;44.800;10.326;2024-02-16T12:46:41;14.50;99.90
32348;DHT22;18821;44.800;10.326;2024-02-16T12:49:09;14.80;99.90
32348;DHT22;18821;44.800;10.326;2024-02-16T12:51:35;14.40;99.90
32348;DHT22;18821;44.800;10.326;2024-02-16T12:54:01;14.20;99.90
32348;DHT22;18821;44.800;10.326;2024-02-16T12:56:30;14.10;99.90
32348;DHT22;18821;44.800;10.326;2024-02-16T12:58:57;14.20;99.90
32348;DHT22;18821;44.800;10.326;2024-02-16T13:01:25;14.40;99.90
32348;DHT22;18821;44.800;10.326;2024-02-16T13:03:52;14.50;99.90
32348;DHT22;18821;44.800;10.326;2024-02-16T13:06:18;14.70;99.90
32348;DHT22;18821;44.800;10.326;2024-02-16T13:08:44;14.50;99.90
32348;DHT22;18821;44.800;10.326;2024-02-16T13:11:10;14.30;99.90
32348;DHT22;18821;44.800;10.326;2024-02-16T13:13:36;13.90;99.90
32348;DHT22;18821;44.800;10.326;2024-02-16T13:16:03;14.10;99.90
32348;DHT22;18821;44.800;10.326;2024-02-16T13:18:29;14.10;99.90
32348;DHT22;18821;44.800;10.326;2024-02-16T13:20:55;14.20;99.90
32348;DHT22;18821;44.800;10.326;2024-02-16T13:23:21;14.40;99.90
32348;DHT22;18821;44.800;10.326;2024-02-16T13:25:47;14.60;99.90
32348;DHT22;18821;44.800;10.326;2024-02-16T13:28:13;14.90;99.90
32348;DHT22;18821;44.800;10.326;2024-02-16T13:30:39;15.20;99.90
32348;DHT22;18821;44.800;10.326;2024-02-16T13:33:05;15.00;99.90
32348;DHT22;18821;44.800;10.326;2024-02-16T13:35:31;14.90;99.90
32348;DHT22;18821;44.800;10.326;2024-02-16T13:37:57;14.60;99.90
32348;DHT22;18821;44.800;10.326;2024-02-16T13:40:24;14.50;99.90
32348;DHT22;18821;44.800;10.326;2024-02-16T13:42:49;14.60;99.90
32348;DHT22;18821;44.800;10.326;2024-02-16T13:45:15;14.50;99.90
32348;DHT22;18821;44.800;10.326;2024-02-16T13:47:41;14.50;99.90
32348;DHT22;18821;44.800;10.326;2024-02-16T13:50:09;14.60;99.90
32348;DHT22;18821;44.800;10.326;2024-02-16T13:52:35;14.70;99.90
32348;DHT22;18821;44.800;10.326;2024-02-16T13:55:01;14.90;99.90
32348;DHT22;18821;44.800;10.326;2024-02-16T13:57:27;15.00;99.90
32348;DHT22;18821;44.800;10.326;2024-02-16T13:59:53;15.00;99.90
32348;DHT22;18821;44.800;10.326;2024-02-16T14:02:20;14.90;99.90
32348;DHT22;18821;44.800;10.326;2024-02-16T14:04:46;15.00;99.90
32348;DHT22;18821;44.800;10.326;2024-02-16T14:07:12;14.90;99.90
32348;DHT22;18821;44.800;10.326;2024-02-16T14:09:39;14.80;99.90
32348;DHT22;18821;44.800;10.326;2024-02-16T14:12:05;14.60;99.90
32348;DHT22;18821;44.800;10.326;2024-02-16T14:14:31;14.60;99.90
32348;DHT22;18821;44.800;10.326;2024-02-16T14:16:57;14.60;99.90
32348;DHT22;18821;44.800;10.326;2024-02-16T14:19:23;14.60;99.90
32348;DHT22;18821;44.800;10.326;2024-02-16T14:21:49;14.60;99.90
32348;DHT22;18821;44.800;10.326;2024-02-16T14:24:15;14.50;99.90
32348;DHT22;18821;44.800;10.326;2024-02-16T14:26:42;14.30;99.90
32348;DHT22;18821;44.800;10.326;2024-02-16T14:29:08;14.20;99.90
32348;DHT22;18821;44.800;10.326;2024-02-16T14:31:35;14.20;99.90
32348;DHT22;18821;44.800;10.326;2024-02-16T14:34:01;14.20;99.90
32348;DHT22;18821;44.800;10.326;2024-02-16T14:36:27;14.10;99.90
32348;DHT22;18821;44.800;10.326;2024-02-16T14:38:54;14.10;99.90
32348;DHT22;18821;44.800;10.326;2024-02-16T14:41:20;14.10;99.90
32348;DHT22;18821;44.800;10.326;2024-02-16T14:43:48;14.00;99.90
32348;DHT22;18821;44.800;10.326;2024-02-16T14:46:14;14.10;99.90
32348;DHT22;18821;44.800;10.326;2024-02-16T14:48:41;14.00;99.90
32348;DHT22;18821;44.800;10.326;2024-02-16T14:51:07;14.00;99.90
32348;DHT22;18821;44.800;10.326;2024-02-16T14:53:34;14.00;99.90
32348;DHT22;18821;44.800;10.326;2024-02-16T14:56:02;14.00;99.90
32348;DHT22;18821;44.800;10.326;2024-02-16T14:58:29;14.00;99.90
32348;DHT22;18821;44.800;10.326;2024-02-16T15:00:55;14.10;99.90
32348;DHT22;18821;44.800;10.326;2024-02-16T15:03:22;14.10;99.90
32348;DHT22;18821;44.800;10.326;2024-02-16T15:05:48;14.20;99.90
32348;DHT22;18821;44.800;10.326;2024-02-16T15:08:14;14.20;99.90
32348;DHT22;18821;44.800;10.326;2024-02-16T15:10:41;14.20;99.90
32348;DHT22;18821;44.800;10.326;2024-02-16T15:13:08;14.30;99.90
32348;DHT22;18821;44.800;10.326;2024-02-16T15:15:35;14.20;99.90
32348;DHT22;18821;44.800;10.326;2024-02-16T15:18:01;14.30;99.90
32348;DHT22;18821;44.800;10.326;2024-02-16T15:20:30;14.30;99.90
32348;DHT22;18821;44.800;10.326;2024-02-16T15:22:56;14.20;99.90
32348;DHT22;18821;44.800;10.326;2024-02-16T15:25:25;14.10;99.90